sensor_id;sensor_type;location;lat;lon;timestamp;temperature;humidity
38265;DHT22;24062;47.480;8.768;2024-03-08T00:00:59;20.40;54.70
38265;DHT22;24062;47.480;8.768;2024-03-08T00:03:25;20.40;54.70
38265;DHT22;24062;47.480;8.768;2024-03-08T00:05:54;20.40;54.70
38265;DHT22;24062;47.480;8.768;2024-03-08T00:08:22;20.40;54.80
38265;DHT22;24062;47.480;8.768;2024-03-08T00:10:50;20.40;54.80
38265;DHT22;24062;47.480;8.768;2024-03-08T00:13:17;20.30;54.80
38265;DHT22;24062;47.480;8.768;2024-03-08T00:15:44;20.30;55.40
38265;DHT22;24062;47.480;8.768;2024-03-08T00:18:11;20.30;54.80
38265;DHT22;24062;47.480;8.768;2024-03-08T00:20:38;20.30;54.80
38265;DHT22;24062;47.480;8.768;2024-03-08T00:23:04;20.20;54.80
38265;DHT22;24062;47.480;8.768;2024-03-08T00:25:33;20.20;54.90
38265;DHT22;24062;47.480;8.768;2024-03-08T00:27:59;20.20;55.00
38265;DHT22;24062;47.480;8.768;2024-03-08T00:30:26;20.20;55.00
38265;DHT22;24062;47.480;8.768;2024-03-08T00:32:53;20.10;54.90
38265;DHT22;24062;47.480;8.768;2024-03-08T00:35:20;20.10;55.00
38265;DHT22;24062;47.480;8.768;2024-03-08T00:37:48;20.10;54.90
38265;DHT22;24062;47.480;8.768;2024-03-08T00:40:16;20.10;55.00
38265;DHT22;24062;47.480;8.768;2024-03-08T00:42:44;20.10;55.00
38265;DHT22;24062;47.480;8.768;2024-03-08T00:45:11;20.10;55.00
38265;DHT22;24062;47.480;8.768;2024-03-08T00:47:38;20.00;55.00
38265;DHT22;24062;47.480;8.768;2024-03-08T00:50:06;20.00;55.00
38265;DHT22;24062;47.480;8.768;2024-03-08T00:52:33;20.00;55.00
38265;DHT22;24062;47.480;8.768;2024-03-08T00:55:00;20.00;55.00
38265;DHT22;24062;47.480;8.768;2024-03-08T00:57:27;20.00;55.10
38265;DHT22;24062;47.480;8.768;2024-03-08T00:59:55;20.00;55.00
38265;DHT22;24062;47.480;8.768;2024-03-08T01:02:22;20.00;55.70
38265;DHT22;24062;47.480;8.768;2024-03-08T01:04:49;19.90;55.10
38265;DHT22;24062;47.480;8.768;2024-03-08T01:07:16;20.00;55.10
38265;DHT22;24062;47.480;8.768;2024-03-08T01:09:43;19.90;55.10
38265;DHT22;24062;47.480;8.768;2024-03-08T01:12:10;19.90;55.10
38265;DHT22;24062;47.480;8.768;2024-03-08T01:14:37;19.90;55.10
38265;DHT22;24062;47.480;8.768;2024-03-08T01:17:05;19.90;55.20
38265;DHT22;24062;47.480;8.768;2024-03-08T01:19:32;19.90;55.20
38265;DHT22;24062;47.480;8.768;2024-03-08T01:21:59;19.90;55.20
38265;DHT22;24062;47.480;8.768;2024-03-08T01:24:25;19.80;55.10
38265;DHT22;24062;47.480;8.768;2024-03-08T01:26:52;19.80;55.20
38265;DHT22;24062;47.480;8.768;2024-03-08T01:29:19;19.80;55.70
38265;DHT22;24062;47.480;8.768;2024-03-08T01:31:46;19.80;55.20
38265;DHT22;24062;47.480;8.768;2024-03-08T01:34:14;19.80;55.30
38265;DHT22;24062;47.480;8.768;2024-03-08T01:36:41;19.70;55.20
38265;DHT22;24062;47.480;8.768;2024-03-08T01:39:08;19.70;55.20
38265;DHT22;24062;47.480;8.768;2024-03-08T01:41:35;19.70;55.20
38265;DHT22;24062;47.480;8.768;2024-03-08T01:44:03;19.70;55.30
38265;DHT22;24062;47.480;8.768;2024-03-08T01:46:31;19.70;55.20
38265;DHT22;24062;47.480;8.768;2024-03-08T01:48:58;19.80;55.30
38265;DHT22;24062;47.480;8.768;2024-03-08T01:51:28;19.70;55.30
38265;DHT22;24062;47.480;8.768;2024-03-08T01:53:55;19.70;55.30
38265;DHT22;24062;47.480;8.768;2024-03-08T01:56:24;19.70;55.30
38265;DHT22;24062;47.480;8.768;2024-03-08T01:58:52;19.70;55.30
38265;DHT22;24062;47.480;8.768;2024-03-08T02:01:18;19.70;55.30
38265;DHT22;24062;47.480;8.768;2024-03-08T02:03:45;19.60;55.20
38265;DHT22;24062;47.480;8.768;2024-03-08T02:06:12;19.60;55.20
38265;DHT22;24062;47.480;8.768;2024-03-08T02:08:43;19.60;55.30
38265;DHT22;24062;47.480;8.768;2024-03-08T02:11:11;19.70;55.30
38265;DHT22;24062;47.480;8.768;2024-03-08T02:13:38;19.60;55.30
38265;DHT22;24062;47.480;8.768;2024-03-08T02:16:05;19.60;55.30
38265;DHT22;24062;47.480;8.768;2024-03-08T02:18:33;19.60;55.30
38265;DHT22;24062;47.480;8.768;2024-03-08T02:21:03;19.60;55.30
38265;DHT22;24062;47.480;8.768;2024-03-08T02:23:30;19.60;55.30
38265;DHT22;24062;47.480;8.768;2024-03-08T02:25:58;19.60;55.40
38265;DHT22;24062;47.480;8.768;2024-03-08T02:28:25;19.50;55.20
38265;DHT22;24062;47.480;8.768;2024-03-08T02:30:52;19.50;55.30
38265;DHT22;24062;47.480;8.768;2024-03-08T02:33:20;19.50;55.90
38265;DHT22;24062;47.480;8.768;2024-03-08T02:35:48;19.50;55.30
38265;DHT22;24062;47.480;8.768;2024-03-08T02:38:19;19.50;55.90
38265;DHT22;24062;47.480;8.768;2024-03-08T02:40:47;19.50;55.30
38265;DHT22;24062;47.480;8.768;2024-03-08T02:43:15;19.50;55.30
38265;DHT22;24062;47.480;8.768;2024-03-08T02:45:43;19.50;55.40
38265;DHT22;24062;47.480;8.768;2024-03-08T02:48:11;19.50;55.30
38265;DHT22;24062;47.480;8.768;2024-03-08T02:50:38;19.50;55.40
38265;DHT22;24062;47.480;8.768;2024-03-08T02:53:06;19.50;55.40
38265;DHT22;24062;47.480;8.768;2024-03-08T02:55:34;19.60;55.30
38265;DHT22;24062;47.480;8.768;2024-03-08T02:58:01;19.70;55.20
38265;DHT22;24062;47.480;8.768;2024-03-08T03:00:28;19.80;55.10
38265;DHT22;24062;47.480;8.768;2024-03-08T03:02:56;19.90;55.10
38265;DHT22;24062;47.480;8.768;2024-03-08T03:05:23;20.00;55.10
38265;DHT22;24062;47.480;8.768;2024-03-08T03:07:50;20.10;55.00
38265;DHT22;24062;47.480;8.768;2024-03-08T03:10:18;20.20;54.90
38265;DHT22;24062;47.480;8.768;2024-03-08T03:12:48;20.30;54.90
38265;DHT22;24062;47.480;8.768;2024-03-08T03:15:15;20.30;54.70
38265;DHT22;24062;47.480;8.768;2024-03-08T03:17:46;20.40;54.70
38265;DHT22;24062;47.480;8.768;2024-03-08T03:20:13;20.40;54.60
38265;DHT22;24062;47.480;8.768;2024-03-08T03:22:48;20.50;54.60
38265;DHT22;24062;47.480;8.768;2024-03-08T03:25:17;20.50;54.50
38265;DHT22;24062;47.480;8.768;2024-03-08T03:27:50;20.50;54.40
38265;DHT22;24062;47.480;8.768;2024-03-08T03:30:17;20.60;54.40
38265;DHT22;24062;47.480;8.768;2024-03-08T03:32:47;20.70;54.40
38265;DHT22;24062;47.480;8.768;2024-03-08T03:35:15;20.70;54.30
38265;DHT22;24062;47.480;8.768;2024-03-08T03:37:42;20.70;54.30
38265;DHT22;24062;47.480;8.768;2024-03-08T03:40:12;20.80;54.30
38265;DHT22;24062;47.480;8.768;2024-03-08T03:42:39;20.80;54.20
38265;DHT22;24062;47.480;8.768;2024-03-08T03:45:08;20.80;54.20
38265;DHT22;24062;47.480;8.768;2024-03-08T03:47:36;20.80;54.10
38265;DHT22;24062;47.480;8.768;2024-03-08T03:50:04;20.80;54.10
38265;DHT22;24062;47.480;8.768;2024-03-08T03:52:31;20.80;54.00
38265;DHT22;24062;47.480;8.768;2024-03-08T03:54:58;20.90;54.10
38265;DHT22;24062;47.480;8.768;2024-03-08T03:57:25;20.90;54.10
38265;DHT22;24062;47.480;8.768;2024-03-08T03:59:52;20.90;54.00
38265;DHT22;24062;47.480;8.768;2024-03-08T04:02:20;20.90;54.00
38265;DHT22;24062;47.480;8.768;2024-03-08T04:04:47;20.90;53.90
38265;DHT22;24062;47.480;8.768;2024-03-08T04:07:14;21.00;54.00
38265;DHT22;24062;47.480;8.768;2024-03-08T04:09:42;21.00;54.00
38265;DHT22;24062;47.480;8.768;2024-03-08T04:12:09;20.90;53.80
38265;DHT22;24062;47.480;8.768;2024-03-08T04:14:36;21.00;53.90
38265;DHT22;24062;47.480;8.768;2024-03-08T04:17:03;21.00;53.80
38265;DHT22;24062;47.480;8.768;2024-03-08T04:19:31;21.00;53.80
38265;DHT22;24062;47.480;8.768;2024-03-08T04:22:00;21.00;53.80
38265;DHT22;24062;47.480;8.768;2024-03-08T04:24:27;21.00;53.80
38265;DHT22;24062;47.480;8.768;2024-03-08T04:26:56;21.00;53.80
38265;DHT22;24062;47.480;8.768;2024-03-08T04:29:23;21.00;53.80
38265;DHT22;24062;47.480;8.768;2024-03-08T04:31:50;21.00;53.80
38265;DHT22;24062;47.480;8.768;2024-03-08T04:34:19;20.90;53.80
38265;DHT22;24062;47.480;8.768;2024-03-08T04:36:48;20.90;53.80
38265;DHT22;24062;47.480;8.768;2024-03-08T04:39:14;20.90;53.80
38265;DHT22;24062;47.480;8.768;2024-03-08T04:41:42;21.00;53.80
38265;DHT22;24062;47.480;8.768;2024-03-08T04:44:10;20.80;54.20
38265;DHT22;24062;47.480;8.768;2024-03-08T04:46:38;21.10;54.00
38265;DHT22;24062;47.480;8.768;2024-03-08T04:49:05;21.10;53.80
38265;DHT22;24062;47.480;8.768;2024-03-08T04:51:32;21.10;53.70
38265;DHT22;24062;47.480;8.768;2024-03-08T04:54:01;21.10;53.70
38265;DHT22;24062;47.480;8.768;2024-03-08T04:56:28;21.20;53.80
38265;DHT22;24062;47.480;8.768;2024-03-08T04:58:55;21.10;53.70
38265;DHT22;24062;47.480;8.768;2024-03-08T05:01:21;21.20;53.70
38265;DHT22;24062;47.480;8.768;2024-03-08T05:03:48;21.10;53.60
38265;DHT22;24062;47.480;8.768;2024-03-08T05:06:15;21.20;53.60
38265;DHT22;24062;47.480;8.768;2024-03-08T05:08:42;21.20;53.60
38265;DHT22;24062;47.480;8.768;2024-03-08T05:11:10;21.20;53.60
38265;DHT22;24062;47.480;8.768;2024-03-08T05:13:40;21.30;53.60
38265;DHT22;24062;47.480;8.768;2024-03-08T05:16:07;21.20;53.50
38265;DHT22;24062;47.480;8.768;2024-03-08T05:18:34;21.20;53.40
38265;DHT22;24062;47.480;8.768;2024-03-08T05:21:01;21.20;53.40
38265;DHT22;24062;47.480;8.768;2024-03-08T05:23:29;21.30;53.40
38265;DHT22;24062;47.480;8.768;2024-03-08T05:25:56;21.30;53.40
38265;DHT22;24062;47.480;8.768;2024-03-08T05:28:24;21.30;53.40
38265;DHT22;24062;47.480;8.768;2024-03-08T05:30:51;21.30;53.30
38265;DHT22;24062;47.480;8.768;2024-03-08T05:33:18;21.40;53.30
38265;DHT22;24062;47.480;8.768;2024-03-08T05:35:45;21.40;53.30
38265;DHT22;24062;47.480;8.768;2024-03-08T05:38:11;21.30;53.20
38265;DHT22;24062;47.480;8.768;2024-03-08T05:40:38;21.40;53.20
38265;DHT22;24062;47.480;8.768;2024-03-08T05:43:05;21.50;53.30
38265;DHT22;24062;47.480;8.768;2024-03-08T05:45:33;21.40;53.10
38265;DHT22;24062;47.480;8.768;2024-03-08T05:48:00;21.40;53.10
38265;DHT22;24062;47.480;8.768;2024-03-08T05:50:27;21.40;53.10
38265;DHT22;24062;47.480;8.768;2024-03-08T05:52:54;21.50;53.20
38265;DHT22;24062;47.480;8.768;2024-03-08T05:55:21;21.40;53.10
38265;DHT22;24062;47.480;8.768;2024-03-08T05:57:50;21.40;53.10
38265;DHT22;24062;47.480;8.768;2024-03-08T06:00:19;21.40;53.70
38265;DHT22;24062;47.480;8.768;2024-03-08T06:02:49;21.50;53.10
38265;DHT22;24062;47.480;8.768;2024-03-08T06:05:16;21.40;53.10
38265;DHT22;24062;47.480;8.768;2024-03-08T06:07:42;21.50;53.10
38265;DHT22;24062;47.480;8.768;2024-03-08T06:10:10;21.50;53.10
38265;DHT22;24062;47.480;8.768;2024-03-08T06:12:38;21.50;53.10
38265;DHT22;24062;47.480;8.768;2024-03-08T06:15:07;21.50;53.00
38265;DHT22;24062;47.480;8.768;2024-03-08T06:17:35;21.50;53.10
38265;DHT22;24062;47.480;8.768;2024-03-08T06:20:04;21.50;53.10
38265;DHT22;24062;47.480;8.768;2024-03-08T06:22:36;21.60;53.10
38265;DHT22;24062;47.480;8.768;2024-03-08T06:25:03;21.60;53.00
38265;DHT22;24062;47.480;8.768;2024-03-08T06:27:30;21.50;52.90
38265;DHT22;24062;47.480;8.768;2024-03-08T06:29:59;21.70;53.00
38265;DHT22;24062;47.480;8.768;2024-03-08T06:32:26;21.60;53.00
38265;DHT22;24062;47.480;8.768;2024-03-08T06:34:53;21.40;52.80
38265;DHT22;24062;47.480;8.768;2024-03-08T06:37:21;21.60;52.80
38265;DHT22;24062;47.480;8.768;2024-03-08T06:39:49;21.60;52.80
38265;DHT22;24062;47.480;8.768;2024-03-08T06:42:16;21.70;52.90
38265;DHT22;24062;47.480;8.768;2024-03-08T06:44:43;21.70;53.40
38265;DHT22;24062;47.480;8.768;2024-03-08T06:47:15;21.70;52.80
38265;DHT22;24062;47.480;8.768;2024-03-08T06:49:42;21.70;52.90
38265;DHT22;24062;47.480;8.768;2024-03-08T06:52:09;21.70;52.70
38265;DHT22;24062;47.480;8.768;2024-03-08T06:54:37;21.80;52.70
38265;DHT22;24062;47.480;8.768;2024-03-08T06:57:04;21.70;52.60
38265;DHT22;24062;47.480;8.768;2024-03-08T06:59:31;21.70;52.50
38265;DHT22;24062;47.480;8.768;2024-03-08T07:01:58;21.80;52.60
38265;DHT22;24062;47.480;8.768;2024-03-08T07:04:26;21.70;52.60
38265;DHT22;24062;47.480;8.768;2024-03-08T07:06:55;21.80;52.60
38265;DHT22;24062;47.480;8.768;2024-03-08T07:09:23;21.80;52.60
38265;DHT22;24062;47.480;8.768;2024-03-08T07:11:51;21.90;52.60
38265;DHT22;24062;47.480;8.768;2024-03-08T07:14:21;21.90;52.50
38265;DHT22;24062;47.480;8.768;2024-03-08T07:16:47;21.90;52.10
38265;DHT22;24062;47.480;8.768;2024-03-08T07:19:14;21.90;51.90
38265;DHT22;24062;47.480;8.768;2024-03-08T07:21:42;21.90;51.90
38265;DHT22;24062;47.480;8.768;2024-03-08T07:24:09;21.90;52.10
38265;DHT22;24062;47.480;8.768;2024-03-08T07:26:54;21.90;52.20
38265;DHT22;24062;47.480;8.768;2024-03-08T07:29:21;21.90;52.10
38265;DHT22;24062;47.480;8.768;2024-03-08T07:31:48;21.90;52.10
38265;DHT22;24062;47.480;8.768;2024-03-08T07:34:23;22.00;52.20
38265;DHT22;24062;47.480;8.768;2024-03-08T07:36:50;22.00;52.10
38265;DHT22;24062;47.480;8.768;2024-03-08T07:39:17;22.00;52.10
38265;DHT22;24062;47.480;8.768;2024-03-08T07:41:44;22.00;52.00
38265;DHT22;24062;47.480;8.768;2024-03-08T07:44:12;22.00;51.90
38265;DHT22;24062;47.480;8.768;2024-03-08T07:46:39;22.10;52.00
38265;DHT22;24062;47.480;8.768;2024-03-08T07:49:07;22.10;52.10
38265;DHT22;24062;47.480;8.768;2024-03-08T07:51:36;22.10;52.00
38265;DHT22;24062;47.480;8.768;2024-03-08T07:54:03;22.10;51.90
38265;DHT22;24062;47.480;8.768;2024-03-08T07:56:30;22.10;51.80
38265;DHT22;24062;47.480;8.768;2024-03-08T07:58:57;22.10;51.90
38265;DHT22;24062;47.480;8.768;2024-03-08T08:01:25;22.10;51.90
38265;DHT22;24062;47.480;8.768;2024-03-08T08:03:52;22.30;51.90
38265;DHT22;24062;47.480;8.768;2024-03-08T08:06:19;22.20;51.70
38265;DHT22;24062;47.480;8.768;2024-03-08T08:08:46;22.20;51.60
38265;DHT22;24062;47.480;8.768;2024-03-08T08:11:13;22.20;51.50
38265;DHT22;24062;47.480;8.768;2024-03-08T08:13:41;22.20;51.30
38265;DHT22;24062;47.480;8.768;2024-03-08T08:16:09;22.20;51.30
38265;DHT22;24062;47.480;8.768;2024-03-08T08:18:37;22.30;51.30
38265;DHT22;24062;47.480;8.768;2024-03-08T08:21:05;22.20;51.20
38265;DHT22;24062;47.480;8.768;2024-03-08T08:23:31;22.20;51.20
38265;DHT22;24062;47.480;8.768;2024-03-08T08:25:59;22.20;51.20
38265;DHT22;24062;47.480;8.768;2024-03-08T08:28:27;22.20;51.30
38265;DHT22;24062;47.480;8.768;2024-03-08T08:30:53;22.30;51.30
38265;DHT22;24062;47.480;8.768;2024-03-08T08:33:20;22.30;51.40
38265;DHT22;24062;47.480;8.768;2024-03-08T08:35:48;22.30;51.30
38265;DHT22;24062;47.480;8.768;2024-03-08T08:38:19;22.30;51.40
38265;DHT22;24062;47.480;8.768;2024-03-08T08:40:47;22.30;51.50
38265;DHT22;24062;47.480;8.768;2024-03-08T08:43:15;22.40;51.60
38265;DHT22;24062;47.480;8.768;2024-03-08T08:45:43;22.30;51.50
38265;DHT22;24062;47.480;8.768;2024-03-08T08:48:12;22.40;51.60
38265;DHT22;24062;47.480;8.768;2024-03-08T08:50:39;22.40;51.70
38265;DHT22;24062;47.480;8.768;2024-03-08T08:53:08;22.40;51.70
38265;DHT22;24062;47.480;8.768;2024-03-08T08:55:36;22.40;51.70
38265;DHT22;24062;47.480;8.768;2024-03-08T08:58:03;22.40;51.60
38265;DHT22;24062;47.480;8.768;2024-03-08T09:00:30;22.40;51.60
38265;DHT22;24062;47.480;8.768;2024-03-08T09:02:57;22.50;51.80
38265;DHT22;24062;47.480;8.768;2024-03-08T09:05:24;22.50;51.70
38265;DHT22;24062;47.480;8.768;2024-03-08T09:07:51;22.50;51.70
38265;DHT22;24062;47.480;8.768;2024-03-08T09:10:21;22.50;51.70
38265;DHT22;24062;47.480;8.768;2024-03-08T09:12:48;22.50;51.70
38265;DHT22;24062;47.480;8.768;2024-03-08T09:15:14;22.50;51.70
38265;DHT22;24062;47.480;8.768;2024-03-08T09:17:43;22.50;51.70
38265;DHT22;24062;47.480;8.768;2024-03-08T09:20:10;22.50;51.80
38265;DHT22;24062;47.480;8.768;2024-03-08T09:22:40;22.50;51.70
38265;DHT22;24062;47.480;8.768;2024-03-08T09:25:08;22.60;51.80
38265;DHT22;24062;47.480;8.768;2024-03-08T09:27:36;22.60;51.80
38265;DHT22;24062;47.480;8.768;2024-03-08T09:30:06;22.60;51.80
38265;DHT22;24062;47.480;8.768;2024-03-08T09:32:33;22.60;51.70
38265;DHT22;24062;47.480;8.768;2024-03-08T09:35:00;22.60;51.70
38265;DHT22;24062;47.480;8.768;2024-03-08T09:37:27;22.60;51.80
38265;DHT22;24062;47.480;8.768;2024-03-08T09:39:53;22.60;51.70
38265;DHT22;24062;47.480;8.768;2024-03-08T09:42:20;22.60;51.70
38265;DHT22;24062;47.480;8.768;2024-03-08T09:44:49;22.70;51.80
38265;DHT22;24062;47.480;8.768;2024-03-08T09:47:16;22.70;51.80
38265;DHT22;24062;47.480;8.768;2024-03-08T09:49:44;22.70;51.80
38265;DHT22;24062;47.480;8.768;2024-03-08T09:52:12;22.70;51.80
38265;DHT22;24062;47.480;8.768;2024-03-08T09:54:39;22.70;51.80
38265;DHT22;24062;47.480;8.768;2024-03-08T09:57:10;22.70;51.70
38265;DHT22;24062;47.480;8.768;2024-03-08T09:59:37;22.80;51.80
38265;DHT22;24062;47.480;8.768;2024-03-08T10:02:15;22.80;51.60
38265;DHT22;24062;47.480;8.768;2024-03-08T10:04:43;22.80;51.70
38265;DHT22;24062;47.480;8.768;2024-03-08T10:07:12;22.80;51.70
38265;DHT22;24062;47.480;8.768;2024-03-08T10:09:39;22.80;51.60
38265;DHT22;24062;47.480;8.768;2024-03-08T10:12:07;22.80;51.60
38265;DHT22;24062;47.480;8.768;2024-03-08T10:14:39;22.90;51.80
38265;DHT22;24062;47.480;8.768;2024-03-08T10:17:06;22.90;51.70
38265;DHT22;24062;47.480;8.768;2024-03-08T10:19:35;22.90;51.60
38265;DHT22;24062;47.480;8.768;2024-03-08T10:22:02;22.90;51.70
38265;DHT22;24062;47.480;8.768;2024-03-08T10:24:33;23.00;51.70
38265;DHT22;24062;47.480;8.768;2024-03-08T10:27:01;22.90;51.70
38265;DHT22;24062;47.480;8.768;2024-03-08T10:29:31;22.90;51.60
38265;DHT22;24062;47.480;8.768;2024-03-08T10:31:58;22.90;51.70
38265;DHT22;24062;47.480;8.768;2024-03-08T10:34:25;22.90;51.70
38265;DHT22;24062;47.480;8.768;2024-03-08T10:36:56;22.90;51.70
38265;DHT22;24062;47.480;8.768;2024-03-08T10:39:25;23.00;51.90
38265;DHT22;24062;47.480;8.768;2024-03-08T10:41:57;23.00;51.80
38265;DHT22;24062;47.480;8.768;2024-03-08T10:44:40;23.00;51.80
38265;DHT22;24062;47.480;8.768;2024-03-08T10:47:13;23.00;51.80
38265;DHT22;24062;47.480;8.768;2024-03-08T10:49:51;23.00;51.80
38265;DHT22;24062;47.480;8.768;2024-03-08T10:52:20;23.00;51.80
38265;DHT22;24062;47.480;8.768;2024-03-08T10:54:48;23.00;51.70
38265;DHT22;24062;47.480;8.768;2024-03-08T10:57:18;23.00;51.70
38265;DHT22;24062;47.480;8.768;2024-03-08T10:59:47;23.00;51.70
38265;DHT22;24062;47.480;8.768;2024-03-08T11:02:16;23.00;51.60
38265;DHT22;24062;47.480;8.768;2024-03-08T11:04:46;23.00;51.70
38265;DHT22;24062;47.480;8.768;2024-03-08T11:07:14;23.00;51.60
38265;DHT22;24062;47.480;8.768;2024-03-08T11:09:47;23.00;51.60
38265;DHT22;24062;47.480;8.768;2024-03-08T11:12:25;23.00;51.60
38265;DHT22;24062;47.480;8.768;2024-03-08T11:14:55;23.00;51.60
38265;DHT22;24062;47.480;8.768;2024-03-08T11:17:39;23.00;51.60
38265;DHT22;24062;47.480;8.768;2024-03-08T11:20:10;23.00;51.50
38265;DHT22;24062;47.480;8.768;2024-03-08T11:22:41;23.00;51.50
38265;DHT22;24062;47.480;8.768;2024-03-08T11:25:31;23.00;51.40
38265;DHT22;24062;47.480;8.768;2024-03-08T11:28:12;23.10;51.40
38265;DHT22;24062;47.480;8.768;2024-03-08T11:30:46;23.00;51.40
38265;DHT22;24062;47.480;8.768;2024-03-08T11:33:15;23.10;51.40
38265;DHT22;24062;47.480;8.768;2024-03-08T11:35:43;23.10;51.40
38265;DHT22;24062;47.480;8.768;2024-03-08T11:38:12;23.10;51.40
38265;DHT22;24062;47.480;8.768;2024-03-08T11:40:41;23.10;51.40
38265;DHT22;24062;47.480;8.768;2024-03-08T11:43:08;23.20;51.50
38265;DHT22;24062;47.480;8.768;2024-03-08T11:45:36;23.10;51.50
38265;DHT22;24062;47.480;8.768;2024-03-08T11:48:04;23.10;51.50
38265;DHT22;24062;47.480;8.768;2024-03-08T11:50:31;23.20;51.60
38265;DHT22;24062;47.480;8.768;2024-03-08T11:53:02;23.20;51.70
38265;DHT22;24062;47.480;8.768;2024-03-08T11:55:29;23.10;51.60
38265;DHT22;24062;47.480;8.768;2024-03-08T11:58:02;23.20;51.70
38265;DHT22;24062;47.480;8.768;2024-03-08T12:00:30;23.10;51.60
38265;DHT22;24062;47.480;8.768;2024-03-08T12:03:04;23.20;51.70
38265;DHT22;24062;47.480;8.768;2024-03-08T12:05:31;23.20;51.70
38265;DHT22;24062;47.480;8.768;2024-03-08T12:07:59;23.20;51.70
38265;DHT22;24062;47.480;8.768;2024-03-08T12:10:26;23.20;51.70
38265;DHT22;24062;47.480;8.768;2024-03-08T12:12:56;23.30;51.80
38265;DHT22;24062;47.480;8.768;2024-03-08T12:15:27;23.30;51.90
38265;DHT22;24062;47.480;8.768;2024-03-08T12:17:55;23.30;51.90
38265;DHT22;24062;47.480;8.768;2024-03-08T12:20:24;23.30;51.90
38265;DHT22;24062;47.480;8.768;2024-03-08T12:22:52;23.30;52.40
38265;DHT22;24062;47.480;8.768;2024-03-08T12:25:22;23.30;51.80
38265;DHT22;24062;47.480;8.768;2024-03-08T12:27:49;23.40;52.40
38265;DHT22;24062;47.480;8.768;2024-03-08T12:30:19;23.40;51.70
38265;DHT22;24062;47.480;8.768;2024-03-08T12:32:53;23.40;51.60
38265;DHT22;24062;47.480;8.768;2024-03-08T12:35:22;23.40;51.70
38265;DHT22;24062;47.480;8.768;2024-03-08T12:37:51;23.40;51.50
38265;DHT22;24062;47.480;8.768;2024-03-08T12:40:19;23.40;51.40
38265;DHT22;24062;47.480;8.768;2024-03-08T12:42:47;23.40;51.30
38265;DHT22;24062;47.480;8.768;2024-03-08T12:45:14;23.50;51.40
38265;DHT22;24062;47.480;8.768;2024-03-08T12:47:41;23.50;51.40
38265;DHT22;24062;47.480;8.768;2024-03-08T12:50:11;23.50;51.30
38265;DHT22;24062;47.480;8.768;2024-03-08T12:52:37;23.50;51.40
38265;DHT22;24062;47.480;8.768;2024-03-08T12:55:05;23.50;51.40
38265;DHT22;24062;47.480;8.768;2024-03-08T12:57:34;23.50;51.20
38265;DHT22;24062;47.480;8.768;2024-03-08T13:00:04;23.60;51.30
38265;DHT22;24062;47.480;8.768;2024-03-08T13:02:37;23.60;51.20
38265;DHT22;24062;47.480;8.768;2024-03-08T13:05:05;23.70;51.20
38265;DHT22;24062;47.480;8.768;2024-03-08T13:07:37;23.70;51.10
38265;DHT22;24062;47.480;8.768;2024-03-08T13:10:05;23.70;51.10
38265;DHT22;24062;47.480;8.768;2024-03-08T13:12:32;23.70;51.20
38265;DHT22;24062;47.480;8.768;2024-03-08T13:15:01;23.70;51.20
38265;DHT22;24062;47.480;8.768;2024-03-08T13:17:30;23.70;51.10
38265;DHT22;24062;47.480;8.768;2024-03-08T13:19:57;23.70;51.10
38265;DHT22;24062;47.480;8.768;2024-03-08T13:22:24;23.70;51.10
38265;DHT22;24062;47.480;8.768;2024-03-08T13:24:52;23.70;51.10
38265;DHT22;24062;47.480;8.768;2024-03-08T13:27:19;23.70;51.20
38265;DHT22;24062;47.480;8.768;2024-03-08T13:29:47;23.70;51.10
38265;DHT22;24062;47.480;8.768;2024-03-08T13:32:15;23.80;51.00
38265;DHT22;24062;47.480;8.768;2024-03-08T13:34:42;23.70;51.00
38265;DHT22;24062;47.480;8.768;2024-03-08T13:37:10;23.70;51.10
38265;DHT22;24062;47.480;8.768;2024-03-08T13:39:37;23.80;51.10
38265;DHT22;24062;47.480;8.768;2024-03-08T13:42:10;23.80;51.20
38265;DHT22;24062;47.480;8.768;2024-03-08T13:44:39;23.80;50.90
38265;DHT22;24062;47.480;8.768;2024-03-08T13:47:06;23.80;51.00
38265;DHT22;24062;47.480;8.768;2024-03-08T13:49:33;23.80;50.90
38265;DHT22;24062;47.480;8.768;2024-03-08T13:52:01;23.90;50.90
38265;DHT22;24062;47.480;8.768;2024-03-08T13:54:29;23.80;50.70
38265;DHT22;24062;47.480;8.768;2024-03-08T13:56:57;23.90;50.70
38265;DHT22;24062;47.480;8.768;2024-03-08T13:59:25;23.80;50.70
38265;DHT22;24062;47.480;8.768;2024-03-08T14:01:55;23.90;50.70
38265;DHT22;24062;47.480;8.768;2024-03-08T14:04:23;23.90;50.60
38265;DHT22;24062;47.480;8.768;2024-03-08T14:06:51;23.90;50.60
38265;DHT22;24062;47.480;8.768;2024-03-08T14:09:22;23.80;50.80
38265;DHT22;24062;47.480;8.768;2024-03-08T14:11:50;23.80;50.70
38265;DHT22;24062;47.480;8.768;2024-03-08T14:14:19;23.90;50.90
38265;DHT22;24062;47.480;8.768;2024-03-08T14:16:48;23.90;51.50
38265;DHT22;24062;47.480;8.768;2024-03-08T14:19:14;23.80;50.80
38265;DHT22;24062;47.480;8.768;2024-03-08T14:21:41;23.90;50.80
38265;DHT22;24062;47.480;8.768;2024-03-08T14:24:08;23.80;50.70
38265;DHT22;24062;47.480;8.768;2024-03-08T14:26:35;23.80;50.80
38265;DHT22;24062;47.480;8.768;2024-03-08T14:29:04;23.80;50.70
38265;DHT22;24062;47.480;8.768;2024-03-08T14:31:31;23.80;50.80
38265;DHT22;24062;47.480;8.768;2024-03-08T14:33:59;23.80;50.80
38265;DHT22;24062;47.480;8.768;2024-03-08T14:36:26;23.80;51.00
38265;DHT22;24062;47.480;8.768;2024-03-08T14:38:53;23.80;51.10
38265;DHT22;24062;47.480;8.768;2024-03-08T14:41:20;23.90;51.10
38265;DHT22;24062;47.480;8.768;2024-03-08T14:43:47;23.90;51.20
38265;DHT22;24062;47.480;8.768;2024-03-08T14:46:14;23.90;51.00
38265;DHT22;24062;47.480;8.768;2024-03-08T14:48:42;24.00;51.10
38265;DHT22;24062;47.480;8.768;2024-03-08T14:51:11;24.00;51.00
38265;DHT22;24062;47.480;8.768;2024-03-08T14:53:40;24.00;50.90
38265;DHT22;24062;47.480;8.768;2024-03-08T14:56:08;24.10;51.00
38265;DHT22;24062;47.480;8.768;2024-03-08T14:58:35;24.10;51.00
38265;DHT22;24062;47.480;8.768;2024-03-08T15:01:04;24.10;51.00
38265;DHT22;24062;47.480;8.768;2024-03-08T15:03:35;24.10;51.00
38265;DHT22;24062;47.480;8.768;2024-03-08T15:06:03;24.10;51.60
38265;DHT22;24062;47.480;8.768;2024-03-08T15:08:35;24.10;51.20
38265;DHT22;24062;47.480;8.768;2024-03-08T15:11:02;24.10;51.00
38265;DHT22;24062;47.480;8.768;2024-03-08T15:13:29;24.00;51.00
38265;DHT22;24062;47.480;8.768;2024-03-08T15:16:05;24.10;51.00
38265;DHT22;24062;47.480;8.768;2024-03-08T15:18:33;24.00;51.10
38265;DHT22;24062;47.480;8.768;2024-03-08T15:21:02;24.10;51.20
38265;DHT22;24062;47.480;8.768;2024-03-08T15:23:34;24.10;51.10
38265;DHT22;24062;47.480;8.768;2024-03-08T15:26:01;24.20;51.10
38265;DHT22;24062;47.480;8.768;2024-03-08T15:28:29;24.20;51.00
38265;DHT22;24062;47.480;8.768;2024-03-08T15:31:03;24.30;51.00
38265;DHT22;24062;47.480;8.768;2024-03-08T15:33:33;24.30;51.00
38265;DHT22;24062;47.480;8.768;2024-03-08T15:36:05;24.30;50.90